Terminal Aerodrome Forecast
Issued by NWS

Current Version | Previous Version | Text Only | Print | Product List | Glossary On
Versions: 1 2 3 4 5 6 7 8 9 10 11 12 13 14 15 16 17 18
383
FTUS42 KFFC 221130
TAFFTY
TAF
KFTY 221130Z 2212/2312 11009KT P6SM VCSH OVC025
     FM221400 10013G21KT P6SM VCSH OVC015
      TEMPO 2215/2219 6SM -SHRA BR
     FM221900 10015G25KT 6SM -SHRA BR OVC012
     FM230000 09022G32KT 2SM SHRA BR OVC008
     FM231000 09013G21KT 6SM -DZ BR OVC008=

USA.gov is the U.S. government's official web portal to all federal, state and local government web resources and services.